createdAt,value
2022-08-04T00:02:05.838Z,95402.09
2022-08-04T00:04:44.358Z,95390.84
2022-08-04T00:07:20.031Z,95397.47
2022-08-04T00:10:09.986Z,95387.28
2022-08-04T00:12:42.362Z,95390.59
2022-08-04T00:15:16.623Z,95394.06
2022-08-04T00:17:50.253Z,95391.59
2022-08-04T00:20:21.139Z,95395.84
2022-08-04T00:22:53.240Z,95395.22
2022-08-04T00:25:21.088Z,95396.41
2022-08-04T00:27:49.194Z,95400.06
2022-08-04T00:30:16.911Z,95396.16
2022-08-04T00:32:44.897Z,95391.63
2022-08-04T00:35:15.873Z,95384.84
2022-08-04T00:37:45.807Z,95386.25
2022-08-04T00:40:26.060Z,95390.59
2022-08-04T00:43:09.723Z,95388.94
2022-08-04T00:46:15.922Z,95385.91
2022-08-04T00:48:57.829Z,95386.56
2022-08-04T00:51:37.106Z,95386.41
2022-08-04T00:54:12.413Z,95386.16
2022-08-04T00:57:33.736Z,95384.09
2022-08-04T01:00:07.564Z,95387.88
2022-08-04T01:02:41.106Z,95389.72
2022-08-04T01:05:21.447Z,95387.56
2022-08-04T01:08:12.906Z,95391.59
2022-08-04T01:10:54.341Z,95387.09
2022-08-04T01:13:44.780Z,95395.72
2022-08-04T01:16:18.076Z,95394.59
2022-08-04T01:18:56.757Z,95391.66
2022-08-04T01:21:50.606Z,95390.03
2022-08-04T01:24:46.909Z,95391.22
2022-08-04T01:27:28.527Z,95391.91
2022-08-04T01:30:01.583Z,95390.66
2022-08-04T01:32:33.591Z,95392.41
2022-08-04T01:35:09.777Z,95389.31
2022-08-04T01:37:52.768Z,95396.00
2022-08-04T01:40:22.511Z,95402.22
2022-08-04T01:42:54.109Z,95392.19
2022-08-04T01:45:26.089Z,95388.97
2022-08-04T01:47:55.307Z,95394.13
2022-08-04T01:50:24.317Z,95392.28
2022-08-04T01:52:55.191Z,95388.41
2022-08-04T01:55:23.588Z,95394.19
2022-08-04T01:58:12.895Z,95394.19
2022-08-04T02:00:53.227Z,95396.84
2022-08-04T02:03:23.746Z,95385.84
2022-08-04T02:06:27.167Z,95389.13
2022-08-04T02:09:05.358Z,95386.28
2022-08-04T02:11:33.200Z,95392.22
2022-08-04T02:14:07.789Z,95388.31
2022-08-04T02:16:45.482Z,95389.97
2022-08-04T02:19:31.280Z,95389.16
2022-08-04T02:22:08.055Z,95382.41
2022-08-04T02:24:44.340Z,95388.53
2022-08-04T02:27:14.669Z,95389.78
2022-08-04T02:29:52.498Z,95392.75
2022-08-04T02:32:28.743Z,95396.63
2022-08-04T02:35:05.417Z,95385.84
2022-08-04T02:37:34.172Z,95388.53
2022-08-04T02:40:05.525Z,95392.03
2022-08-04T02:42:34.083Z,95384.59
2022-08-04T02:45:02.287Z,95385.16
2022-08-04T02:48:29.803Z,95388.81
2022-08-04T02:50:28.242Z,95388.06
2022-08-04T02:52:59.365Z,95384.19
2022-08-04T02:55:30.115Z,95380.28
2022-08-04T02:58:00.603Z,95377.38
2022-08-04T03:00:29.259Z,95373.81
2022-08-04T03:03:08.464Z,95377.09
2022-08-04T03:06:01.496Z,95376.72
2022-08-04T03:08:52.060Z,95371.66
2022-08-04T03:11:57.753Z,95371.19
2022-08-04T03:15:10.076Z,95372.25
2022-08-04T03:18:14.158Z,95372.47
2022-08-04T03:21:16.673Z,95371.44
2022-08-04T03:24:20.520Z,95364.69
2022-08-04T03:27:11.148Z,95376.63
2022-08-04T03:30:06.020Z,95372.22
2022-08-04T03:33:21.163Z,95375.75
2022-08-04T03:36:33.515Z,95374.81
2022-08-04T03:39:22.595Z,95383.47
2022-08-04T03:42:08.262Z,95380.63
2022-08-04T03:44:58.722Z,95380.53
2022-08-04T03:47:45.960Z,95374.38
2022-08-04T03:51:35.136Z,95374.81
2022-08-04T03:54:33.075Z,95372.19
2022-08-04T03:57:31.566Z,95379.63
2022-08-04T04:00:09.732Z,95374.88
2022-08-04T04:02:57.981Z,95370.81
2022-08-04T04:05:59.004Z,95378.84
2022-08-04T04:08:54.773Z,95377.41
2022-08-04T04:11:58.853Z,95378.22
2022-08-04T04:14:53.262Z,95379.88
2022-08-04T04:17:50.115Z,95379.28
2022-08-04T04:20:48.106Z,95387.28
2022-08-04T04:23:36.459Z,95387.94
2022-08-04T04:26:33.326Z,95391.63
2022-08-04T04:29:14.624Z,95382.91
2022-08-04T04:32:00.569Z,95383.91
2022-08-04T04:34:46.003Z,95387.56
2022-08-04T04:37:22.449Z,95386.56
2022-08-04T04:40:04.924Z,95389.19
2022-08-04T04:42:44.279Z,95391.03
2022-08-04T04:45:21.364Z,95385.97
2022-08-04T04:48:08.662Z,95392.47
2022-08-04T04:50:53.192Z,95402.28
2022-08-04T04:53:29.365Z,95402.09
2022-08-04T04:56:06.981Z,95411.88
2022-08-04T04:58:38.992Z,95410.44
2022-08-04T05:01:25.484Z,95411.50
2022-08-04T05:04:19.170Z,95411.28
2022-08-04T05:07:07.527Z,95406.38
2022-08-04T05:09:53.333Z,95407.38
2022-08-04T05:14:31.289Z,95406.13
2022-08-04T05:15:46.068Z,95410.44
2022-08-04T05:18:18.588Z,95404.13
2022-08-04T05:20:52.271Z,95398.38
2022-08-04T05:23:24.709Z,95403.09
2022-08-04T05:25:59.464Z,95406.78
2022-08-04T05:28:34.627Z,95401.88
2022-08-04T05:31:17.181Z,95399.59
2022-08-04T05:33:49.977Z,95401.00
2022-08-04T05:36:35.343Z,95395.72
2022-08-04T05:39:13.159Z,95401.47
2022-08-04T05:41:45.746Z,95396.53
2022-08-04T05:44:17.808Z,95404.53
2022-08-04T05:46:53.661Z,95401.63
2022-08-04T05:49:23.731Z,95397.66
2022-08-04T05:51:53.131Z,95401.56
2022-08-04T05:54:22.359Z,95403.59
2022-08-04T05:56:50.969Z,95409.91
2022-08-04T05:59:21.609Z,95390.31
2022-08-04T06:01:55.949Z,95394.19
2022-08-04T06:04:28.977Z,95399.47
2022-08-04T06:06:56.756Z,95402.34
2022-08-04T06:09:24.543Z,95404.78
2022-08-04T06:12:00.482Z,95398.66
2022-08-04T06:14:36.816Z,95403.41
2022-08-04T06:18:32.145Z,95405.84
2022-08-04T06:20:19.037Z,95403.34
2022-08-04T06:22:47.564Z,95410.91
2022-08-04T06:25:20.485Z,95401.94
2022-08-04T06:27:49.627Z,95406.41
2022-08-04T06:30:20.091Z,95407.53
2022-08-04T06:33:03.493Z,95410.78
2022-08-04T06:35:33.446Z,95408.75
2022-08-04T06:38:02.937Z,95400.19
2022-08-04T06:40:33.729Z,95403.38
2022-08-04T06:43:03.985Z,95399.69
2022-08-04T06:45:35.411Z,95398.47
2022-08-04T06:48:04.405Z,95403.81
2022-08-04T06:51:27.121Z,95401.41
2022-08-04T06:53:21.232Z,95402.41
2022-08-04T06:55:50.253Z,95395.00
2022-08-04T06:58:19.694Z,95405.44
2022-08-04T07:00:50.542Z,95399.91
2022-08-04T07:03:21.546Z,95407.09
2022-08-04T07:05:50.148Z,95404.50
2022-08-04T07:08:18.207Z,95404.88
2022-08-04T07:10:46.509Z,95404.31
2022-08-04T07:13:15.155Z,95406.59
2022-08-04T07:15:46.055Z,95400.66
2022-08-04T07:18:15.325Z,95408.41
2022-08-04T07:20:44.562Z,95409.84
2022-08-04T07:23:17.228Z,95408.75
2022-08-04T07:25:59.492Z,95401.28
2022-08-04T07:28:31.319Z,95406.38
2022-08-04T07:30:59.705Z,95393.41
2022-08-04T07:33:29.252Z,95403.97
2022-08-04T07:36:05.958Z,95406.09
2022-08-04T07:38:49.745Z,95412.88
2022-08-04T07:41:38.033Z,95406.78
2022-08-04T07:44:07.814Z,95406.59
2022-08-04T07:46:35.687Z,95410.28
2022-08-04T07:49:05.400Z,95407.63
2022-08-04T07:51:35.261Z,95406.16
2022-08-04T07:54:04.002Z,95407.56
2022-08-04T07:56:32.492Z,95395.09
2022-08-04T07:59:01.941Z,95393.63
2022-08-04T08:01:29.648Z,95399.88
2022-08-04T08:04:01.592Z,95395.09
2022-08-04T08:06:36.469Z,95399.81
2022-08-04T08:09:13.833Z,95404.16
2022-08-04T08:12:38.442Z,95410.06
2022-08-04T08:14:35.393Z,95402.91
2022-08-04T08:17:04.170Z,95402.06
2022-08-04T08:19:32.442Z,95402.06
2022-08-04T08:22:02.305Z,95405.31
2022-08-04T08:24:31.772Z,95399.63
2022-08-04T08:27:00.134Z,95403.47
2022-08-04T08:29:30.234Z,95400.97
2022-08-04T08:32:02.698Z,95396.19
2022-08-04T08:34:32.073Z,95394.09
2022-08-04T08:37:06.088Z,95399.81
2022-08-04T08:39:39.991Z,95404.84
2022-08-04T08:42:28.952Z,95394.09
2022-08-04T08:45:49.621Z,95399.59
2022-08-04T08:48:52.766Z,95397.81
2022-08-04T08:51:55.137Z,95398.09
2022-08-04T08:55:04.882Z,95400.34
2022-08-04T08:57:59.770Z,95400.19
2022-08-04T09:00:38.044Z,95402.50
2022-08-04T09:03:25.108Z,95402.09
2022-08-04T09:06:04.082Z,95401.88
2022-08-04T09:09:06.240Z,95400.50
2022-08-04T09:11:43.083Z,95405.66
2022-08-04T09:14:24.953Z,95400.25
2022-08-04T09:16:56.668Z,95402.09
2022-08-04T09:19:38.287Z,95396.50
2022-08-04T09:22:17.268Z,95391.66
2022-08-04T09:24:52.898Z,95396.25
2022-08-04T09:27:23.380Z,95383.59
2022-08-04T09:30:08.109Z,95389.78
2022-08-04T09:32:48.459Z,95390.97
2022-08-04T09:35:25.215Z,95397.28
2022-08-04T09:38:11.051Z,95390.19
2022-08-04T09:40:55.526Z,95384.84
2022-08-04T09:43:57.014Z,95396.09
2022-08-04T09:46:34.603Z,95397.50
2022-08-04T09:49:08.723Z,95384.19
2022-08-04T09:51:56.720Z,95379.56
2022-08-04T09:54:34.490Z,95388.88
2022-08-04T09:57:14.273Z,95386.97
2022-08-04T09:59:47.561Z,95385.16
2022-08-04T10:02:20.183Z,95382.75
2022-08-04T10:04:50.299Z,95380.66
2022-08-04T10:07:37.023Z,95385.16
2022-08-04T10:10:16.932Z,95383.69
2022-08-04T10:13:04.607Z,95382.44
2022-08-04T10:15:41.424Z,95378.22
2022-08-04T10:18:30.640Z,95386.41
2022-08-04T10:21:15.230Z,95370.81
2022-08-04T10:24:13.583Z,95376.13
2022-08-04T10:26:53.100Z,95381.38
2022-08-04T10:29:29.701Z,95374.88
2022-08-04T10:32:01.536Z,95365.03
2022-08-04T10:34:40.601Z,95370.13
2022-08-04T10:37:20.270Z,95364.78
2022-08-04T10:40:09.364Z,95365.69
2022-08-04T10:42:42.938Z,95358.81
2022-08-04T10:45:17.763Z,95362.66
2022-08-04T10:47:55.559Z,95372.13
2022-08-04T10:50:28.355Z,95364.22
2022-08-04T10:53:03.481Z,95360.50
2022-08-04T10:56:06.477Z,95362.22
2022-08-04T10:58:46.922Z,95356.63
2022-08-04T11:02:01.650Z,95353.63
2022-08-04T11:04:27.167Z,95360.38
2022-08-04T11:07:00.449Z,95353.06
2022-08-04T11:09:29.862Z,95350.59
2022-08-04T11:12:05.027Z,95347.47
2022-08-04T11:14:38.827Z,95349.19
2022-08-04T11:17:12.078Z,95352.69
2022-08-04T11:19:53.276Z,95355.50
2022-08-04T11:22:27.111Z,95345.22
2022-08-04T11:25:01.070Z,95345.00
2022-08-04T11:27:35.934Z,95344.41
2022-08-04T11:30:06.679Z,95344.81
2022-08-04T11:32:42.407Z,95348.06
2022-08-04T11:35:18.420Z,95354.91
2022-08-04T11:37:52.435Z,95346.44
2022-08-04T11:40:26.353Z,95341.50
2022-08-04T11:43:01.959Z,95337.63
2022-08-04T11:45:42.145Z,95340.03
2022-08-04T11:48:14.314Z,95335.47
2022-08-04T11:50:53.466Z,95340.28
2022-08-04T11:53:26.389Z,95349.38
2022-08-04T11:56:11.077Z,95339.41
2022-08-04T11:58:39.560Z,95342.69
2022-08-04T12:01:19.181Z,95343.44
2022-08-04T12:04:03.662Z,95337.03
2022-08-04T12:06:56.728Z,95342.81
2022-08-04T12:09:46.890Z,95345.00
2022-08-04T12:12:24.239Z,95337.03
2022-08-04T12:14:59.340Z,95335.03
2022-08-04T12:17:51.998Z,95335.50
2022-08-04T12:20:32.215Z,95334.81
2022-08-04T12:23:16.363Z,95325.50
2022-08-04T12:25:49.819Z,95326.19
2022-08-04T12:28:23.418Z,95327.31
2022-08-04T12:31:03.338Z,95333.28
2022-08-04T12:33:41.221Z,95325.19
2022-08-04T12:36:34.620Z,95325.41
2022-08-04T12:39:10.441Z,95322.81
2022-08-04T12:41:45.582Z,95324.38
2022-08-04T12:44:37.397Z,95326.63
2022-08-04T12:47:27.555Z,95323.19
2022-08-04T12:50:00.799Z,95321.84
2022-08-04T12:53:01.106Z,95326.63
2022-08-04T12:55:19.148Z,95317.81
2022-08-04T12:57:50.587Z,95315.38
2022-08-04T13:00:29.824Z,95318.03
2022-08-04T13:03:05.644Z,95309.66
2022-08-04T13:05:39.148Z,95319.88
2022-08-04T13:08:08.544Z,95324.03
2022-08-04T13:10:41.190Z,95313.09
2022-08-04T13:13:17.910Z,95314.41
2022-08-04T13:15:56.516Z,95317.94
2022-08-04T13:18:30.144Z,95310.50
2022-08-04T13:21:19.485Z,95313.66
2022-08-04T13:24:10.880Z,95309.44
2022-08-04T13:26:54.753Z,95299.34
2022-08-04T13:30:00.473Z,95290.94
2022-08-04T13:32:22.240Z,95294.69
2022-08-04T13:34:53.540Z,95296.06
2022-08-04T13:37:26.524Z,95294.25
2022-08-04T13:39:56.790Z,95284.47
2022-08-04T13:42:27.429Z,95291.00
2022-08-04T13:44:59.058Z,95282.81
2022-08-04T13:47:31.064Z,95284.72
2022-08-04T13:50:16.432Z,95282.06
2022-08-04T13:52:45.596Z,95268.28
2022-08-04T13:55:24.191Z,95265.78
2022-08-04T13:57:56.765Z,95267.81
2022-08-04T14:00:30.218Z,95270.25
2022-08-04T14:03:23.281Z,95263.63
2022-08-04T14:06:15.063Z,95263.78
2022-08-04T14:08:55.013Z,95260.72
2022-08-04T14:12:07.145Z,95260.00
2022-08-04T14:14:23.284Z,95260.38
2022-08-04T14:17:04.561Z,95260.69
2022-08-04T14:19:53.011Z,95262.03
2022-08-04T14:22:35.772Z,95261.72
2022-08-04T14:25:09.143Z,95259.88
2022-08-04T14:27:46.351Z,95261.16
2022-08-04T14:30:23.393Z,95258.47
2022-08-04T14:34:01.574Z,95252.03
2022-08-04T14:35:58.390Z,95254.09
2022-08-04T14:38:42.075Z,95250.94
2022-08-04T14:41:09.848Z,95248.03
2022-08-04T14:43:44.283Z,95249.38
2022-08-04T14:46:12.676Z,95241.81
2022-08-04T14:49:01.270Z,95248.50
2022-08-04T14:51:36.369Z,95246.03
2022-08-04T14:54:08.975Z,95244.91
2022-08-04T14:56:47.667Z,95250.44
2022-08-04T14:59:15.496Z,95247.44
2022-08-04T15:01:44.223Z,95244.16
2022-08-04T15:04:14.854Z,95249.00
2022-08-04T15:06:43.089Z,95237.38
2022-08-04T15:09:11.642Z,95243.53
2022-08-04T15:11:43.314Z,95243.72
2022-08-04T15:14:36.458Z,95240.38
2022-08-04T15:16:59.270Z,95245.94
2022-08-04T15:19:28.550Z,95239.38
2022-08-04T15:21:56.727Z,95234.94
2022-08-04T15:24:24.474Z,95238.56
2022-08-04T15:26:57.541Z,95243.44
2022-08-04T15:29:29.633Z,95231.47
2022-08-04T15:32:18.409Z,95227.31
2022-08-04T15:34:49.193Z,95234.09
2022-08-04T15:37:26.486Z,95222.94
2022-08-04T15:40:00.762Z,95220.81
2022-08-04T15:42:39.157Z,95216.91
2022-08-04T15:45:21.051Z,95212.22
2022-08-04T15:48:26.064Z,95218.63
2022-08-04T15:51:15.144Z,95214.31
2022-08-04T15:54:33.179Z,95213.00
2022-08-04T15:57:02.458Z,95212.16
2022-08-04T16:00:03.733Z,95211.03
2022-08-04T16:02:39.348Z,95198.84
2022-08-04T16:05:34.442Z,95198.00
2022-08-04T16:08:11.793Z,95205.06
2022-08-04T16:10:42.444Z,95205.59
2022-08-04T16:13:13.889Z,95192.25
2022-08-04T16:15:46.844Z,95188.19
2022-08-04T16:18:26.553Z,95192.59
2022-08-04T16:20:57.170Z,95196.09
2022-08-04T16:23:57.946Z,95194.59
2022-08-04T16:26:55.171Z,95191.97
2022-08-04T16:29:42.347Z,95189.84
2022-08-04T16:32:12.203Z,95194.25
2022-08-04T16:34:49.892Z,95190.22
2022-08-04T16:37:22.877Z,95190.88
2022-08-04T16:40:44.651Z,95190.03
2022-08-04T16:54:03.603Z,95186.81
2022-08-04T17:09:28.741Z,95179.47
2022-08-04T17:14:48.037Z,95184.13
2022-08-04T17:17:16.658Z,95180.09
2022-08-04T17:19:53.410Z,95172.28
2022-08-04T17:22:21.325Z,95169.06
2022-08-04T17:24:50.634Z,95174.69
2022-08-04T17:28:09.157Z,95165.75
2022-08-04T17:30:27.530Z,95178.22
2022-08-04T17:32:55.340Z,95171.47
2022-08-04T17:35:23.375Z,95173.94
2022-08-04T17:37:52.786Z,95170.69
2022-08-04T17:40:25.595Z,95168.78
2022-08-04T17:44:02.868Z,95165.88
2022-08-04T17:46:28.678Z,95174.22
2022-08-04T17:49:09.707Z,95170.16
2022-08-04T17:52:05.605Z,95164.78
2022-08-04T17:54:37.030Z,95168.47
2022-08-04T17:57:15.693Z,95170.34
2022-08-04T17:59:57.743Z,95163.03
2022-08-04T18:02:31.871Z,95169.50
2022-08-04T18:05:06.758Z,95170.00
2022-08-04T18:08:38.395Z,95165.94
2022-08-04T18:10:52.183Z,95173.41
2022-08-04T18:13:23.111Z,95167.00
2022-08-04T18:16:02.428Z,95163.00
2022-08-04T18:18:30.897Z,95167.47
2022-08-04T18:21:02.791Z,95156.31
2022-08-04T18:23:32.774Z,95161.03
2022-08-04T18:26:02.456Z,95164.31
2022-08-04T18:28:33.595Z,95169.97
2022-08-04T18:31:03.136Z,95170.59
2022-08-04T18:33:39.749Z,95175.38
2022-08-04T18:38:58.860Z,95176.31
2022-08-04T18:41:27.658Z,95175.03
2022-08-04T18:43:56.785Z,95182.91
2022-08-04T18:46:26.943Z,95184.84
2022-08-04T18:48:55.013Z,95195.88
2022-08-04T18:51:25.131Z,95190.41
2022-08-04T18:53:59.432Z,95183.81
2022-08-04T18:56:29.882Z,95188.31
2022-08-04T18:59:00.316Z,95192.00
2022-08-04T19:04:33.098Z,95195.16
2022-08-04T19:07:23.189Z,95209.13
2022-08-04T19:09:53.939Z,95211.03
2022-08-04T19:12:26.638Z,95205.31
2022-08-04T19:14:58.633Z,95208.63
2022-08-04T19:17:53.718Z,95208.38
2022-08-04T19:20:26.316Z,95204.06
2022-08-04T19:24:26.897Z,95209.72
2022-08-04T19:25:58.729Z,95217.06
2022-08-04T19:31:22.692Z,95219.00
2022-08-04T19:34:04.350Z,95221.22
2022-08-04T19:36:33.097Z,95220.97
2022-08-04T19:39:04.188Z,95226.59
2022-08-04T19:42:06.226Z,95223.31
2022-08-04T19:44:29.488Z,95227.63
2022-08-04T19:47:00.908Z,95233.84
2022-08-04T19:50:04.324Z,95227.34
2022-08-04T19:52:34.280Z,95230.31
2022-08-04T19:55:10.107Z,95233.28
2022-08-04T19:57:46.081Z,95232.19
2022-08-04T20:00:17.515Z,95237.06
2022-08-04T20:03:01.868Z,95233.28
2022-08-04T20:05:52.784Z,95237.38
2022-08-04T20:08:21.303Z,95236.25
2022-08-04T20:10:51.612Z,95233.56
2022-08-04T20:13:20.989Z,95226.53
2022-08-04T20:15:57.677Z,95238.97
2022-08-04T20:18:36.574Z,95235.47
2022-08-04T20:21:19.492Z,95225.44
2022-08-04T20:23:53.065Z,95233.56
2022-08-04T20:26:21.891Z,95232.78
2022-08-04T20:28:51.827Z,95238.19
2022-08-04T20:31:20.915Z,95233.84
2022-08-04T20:33:55.006Z,95235.75
2022-08-04T20:36:24.166Z,95233.84
2022-08-04T20:39:09.714Z,95224.41
2022-08-04T20:41:44.951Z,95229.00
2022-08-04T20:44:12.747Z,95227.38
2022-08-04T20:46:40.448Z,95225.19
2022-08-04T20:49:08.246Z,95225.00
2022-08-04T20:51:40.186Z,95227.38
2022-08-04T20:54:16.914Z,95230.22
2022-08-04T20:56:51.421Z,95226.97
2022-08-04T20:59:19.562Z,95230.81
2022-08-04T21:01:49.646Z,95230.78
2022-08-04T21:04:35.979Z,95229.16
2022-08-04T21:07:07.434Z,95225.41
2022-08-04T21:09:38.376Z,95232.38
2022-08-04T21:12:27.860Z,95233.97
2022-08-04T21:14:58.100Z,95232.59
2022-08-04T21:17:59.455Z,95233.56
2022-08-04T21:20:14.172Z,95226.25
2022-08-04T21:22:59.530Z,95229.78
2022-08-04T21:25:29.599Z,95234.38
2022-08-04T21:27:58.636Z,95230.53
2022-08-04T21:30:27.131Z,95233.47
2022-08-04T21:32:55.686Z,95229.63
2022-08-04T21:35:36.753Z,95233.63
2022-08-04T21:38:16.504Z,95224.97
2022-08-04T21:40:53.472Z,95227.31
2022-08-04T21:43:23.516Z,95229.41
2022-08-04T21:45:55.713Z,95221.06
2022-08-04T21:48:27.642Z,95221.03
2022-08-04T21:50:56.243Z,95219.09
2022-08-04T21:53:27.745Z,95223.59
2022-08-04T21:56:05.024Z,95230.72
2022-08-04T21:58:35.082Z,95225.31
2022-08-04T22:01:06.106Z,95233.59
2022-08-04T22:03:53.781Z,95227.44
2022-08-04T22:06:28.830Z,95229.81
2022-08-04T22:08:58.593Z,95235.38
2022-08-04T22:11:48.901Z,95236.47
2022-08-04T22:14:17.460Z,95234.69
2022-08-04T22:16:56.449Z,95237.66
2022-08-04T22:19:39.868Z,95232.03
2022-08-04T22:22:13.637Z,95235.72
2022-08-04T22:24:58.835Z,95229.56
2022-08-04T22:27:47.724Z,95232.22
2022-08-04T22:30:23.447Z,95221.44
2022-08-04T22:32:51.304Z,95227.97
2022-08-04T22:35:36.107Z,95220.19
2022-08-04T22:38:24.340Z,95221.06
2022-08-04T22:41:01.171Z,95216.94
2022-08-04T22:43:32.654Z,95215.06
2022-08-04T22:46:03.895Z,95217.69
2022-08-04T22:48:32.435Z,95218.69
2022-08-04T22:51:00.597Z,95219.97
2022-08-04T22:53:28.389Z,95210.19
2022-08-04T22:56:06.780Z,95220.75
2022-08-04T22:58:40.093Z,95218.31
2022-08-04T23:01:08.634Z,95219.38
2022-08-04T23:03:38.644Z,95225.63
2022-08-04T23:06:11.030Z,95229.69
2022-08-04T23:08:43.029Z,95231.00
2022-08-04T23:11:14.881Z,95223.38
2022-08-04T23:13:44.066Z,95219.91
2022-08-04T23:16:12.294Z,95221.56
2022-08-04T23:18:42.092Z,95217.16
2022-08-04T23:21:13.978Z,95223.31
2022-08-04T23:23:45.386Z,95224.78
2022-08-04T23:26:27.354Z,95225.53
2022-08-04T23:28:57.063Z,95221.66
2022-08-04T23:31:25.444Z,95221.31
2022-08-04T23:34:12.318Z,95210.59
2022-08-04T23:36:40.956Z,95209.47
2022-08-04T23:39:10.489Z,95209.03
2022-08-04T23:41:54.054Z,95209.94
2022-08-04T23:44:28.172Z,95208.25
2022-08-04T23:47:00.727Z,95199.25
2022-08-04T23:49:44.482Z,95200.13
2022-08-04T23:52:23.339Z,95202.50
2022-08-04T23:54:59.401Z,95196.66
2022-08-04T23:57:30.822Z,95190.56
